sensor_id;sensor_type;location;lat;lon;timestamp;P1;durP1;ratioP1;P2;durP2;ratioP2
28086;SDS011;15392;48.912;8.380;2023-04-25T00:02:05;0.40;;;0.40;;
28086;SDS011;15392;48.912;8.380;2023-04-25T00:04:31;0.30;;;0.30;;
28086;SDS011;15392;48.912;8.380;2023-04-25T00:06:58;0.40;;;0.40;;
28086;SDS011;15392;48.912;8.380;2023-04-25T00:09:28;0.40;;;0.40;;
28086;SDS011;15392;48.912;8.380;2023-04-25T00:11:53;0.40;;;0.40;;
28086;SDS011;15392;48.912;8.380;2023-04-25T00:14:19;0.40;;;0.40;;
28086;SDS011;15392;48.912;8.380;2023-04-25T00:16:45;0.40;;;0.40;;
28086;SDS011;15392;48.912;8.380;2023-04-25T00:19:11;0.40;;;0.40;;
28086;SDS011;15392;48.912;8.380;2023-04-25T00:21:38;0.30;;;0.30;;
28086;SDS011;15392;48.912;8.380;2023-04-25T00:24:06;0.32;;;0.32;;
28086;SDS011;15392;48.912;8.380;2023-04-25T00:26:34;0.80;;;0.43;;
28086;SDS011;15392;48.912;8.380;2023-04-25T00:29:01;0.40;;;0.40;;
28086;SDS011;15392;48.912;8.380;2023-04-25T00:31:27;0.45;;;0.45;;
28086;SDS011;15392;48.912;8.380;2023-04-25T00:33:54;0.40;;;0.40;;
28086;SDS011;15392;48.912;8.380;2023-04-25T00:36:19;0.40;;;0.40;;
28086;SDS011;15392;48.912;8.380;2023-04-25T01:05:27;0.40;;;0.40;;
28086;SDS011;15392;48.912;8.380;2023-04-25T01:07:53;0.50;;;0.50;;
28086;SDS011;15392;48.912;8.380;2023-04-25T01:10:19;0.65;;;0.65;;
28086;SDS011;15392;48.912;8.380;2023-04-25T01:12:45;0.43;;;0.43;;
28086;SDS011;15392;48.912;8.380;2023-04-25T01:15:12;0.50;;;0.50;;
28086;SDS011;15392;48.912;8.380;2023-04-25T01:17:38;0.50;;;0.50;;
28086;SDS011;15392;48.912;8.380;2023-04-25T01:20:06;0.60;;;0.60;;
28086;SDS011;15392;48.912;8.380;2023-04-25T01:22:34;0.50;;;0.50;;
28086;SDS011;15392;48.912;8.380;2023-04-25T01:25:00;0.43;;;0.43;;
28086;SDS011;15392;48.912;8.380;2023-04-25T01:27:27;0.43;;;0.40;;
28086;SDS011;15392;48.912;8.380;2023-04-25T01:29:54;0.40;;;0.40;;
28086;SDS011;15392;48.912;8.380;2023-04-25T01:32:21;0.50;;;0.50;;
28086;SDS011;15392;48.912;8.380;2023-04-25T01:34:48;0.50;;;0.50;;
28086;SDS011;15392;48.912;8.380;2023-04-25T01:37:15;0.43;;;0.43;;
28086;SDS011;15392;48.912;8.380;2023-04-25T01:39:42;0.50;;;0.50;;
28086;SDS011;15392;48.912;8.380;2023-04-25T01:42:09;0.45;;;0.45;;
28086;SDS011;15392;48.912;8.380;2023-04-25T01:44:35;0.60;;;0.60;;
28086;SDS011;15392;48.912;8.380;2023-04-25T01:47:01;0.50;;;0.50;;
28086;SDS011;15392;48.912;8.380;2023-04-25T01:49:27;0.50;;;0.50;;
28086;SDS011;15392;48.912;8.380;2023-04-25T01:51:53;0.50;;;0.50;;
28086;SDS011;15392;48.912;8.380;2023-04-25T01:54:19;0.45;;;0.45;;
28086;SDS011;15392;48.912;8.380;2023-04-25T01:56:49;0.68;;;0.68;;
28086;SDS011;15392;48.912;8.380;2023-04-25T01:59:17;0.65;;;0.65;;
28086;SDS011;15392;48.912;8.380;2023-04-25T02:01:45;0.60;;;0.60;;
28086;SDS011;15392;48.912;8.380;2023-04-25T02:04:11;0.35;;;0.35;;
28086;SDS011;15392;48.912;8.380;2023-04-25T02:06:37;0.50;;;0.50;;
28086;SDS011;15392;48.912;8.380;2023-04-25T02:09:05;0.50;;;0.50;;
28086;SDS011;15392;48.912;8.380;2023-04-25T02:11:31;0.38;;;0.38;;
28086;SDS011;15392;48.912;8.380;2023-04-25T02:13:57;0.57;;;0.57;;
28086;SDS011;15392;48.912;8.380;2023-04-25T02:16:23;0.45;;;0.45;;
28086;SDS011;15392;48.912;8.380;2023-04-25T02:18:50;0.60;;;0.60;;
28086;SDS011;15392;48.912;8.380;2023-04-25T02:21:17;0.85;;;0.50;;
28086;SDS011;15392;48.912;8.380;2023-04-25T02:23:43;0.50;;;0.50;;
28086;SDS011;15392;48.912;8.380;2023-04-25T02:26:13;0.57;;;0.57;;
28086;SDS011;15392;48.912;8.380;2023-04-25T02:28:39;0.55;;;0.55;;
28086;SDS011;15392;48.912;8.380;2023-04-25T02:31:05;0.50;;;0.47;;
28086;SDS011;15392;48.912;8.380;2023-04-25T02:33:31;0.60;;;0.60;;
28086;SDS011;15392;48.912;8.380;2023-04-25T02:35:57;0.50;;;0.50;;
28086;SDS011;15392;48.912;8.380;2023-04-25T02:38:23;0.50;;;0.50;;
28086;SDS011;15392;48.912;8.380;2023-04-25T02:40:49;0.43;;;0.43;;
28086;SDS011;15392;48.912;8.380;2023-04-25T02:43:14;0.60;;;0.60;;
28086;SDS011;15392;48.912;8.380;2023-04-25T02:45:41;0.63;;;0.63;;
28086;SDS011;15392;48.912;8.380;2023-04-25T02:48:06;0.70;;;0.70;;
28086;SDS011;15392;48.912;8.380;2023-04-25T02:50:32;0.60;;;0.60;;
28086;SDS011;15392;48.912;8.380;2023-04-25T02:52:58;1.85;;;0.50;;
28086;SDS011;15392;48.912;8.380;2023-04-25T02:55:24;0.60;;;0.60;;
28086;SDS011;15392;48.912;8.380;2023-04-25T02:57:51;0.60;;;0.60;;
28086;SDS011;15392;48.912;8.380;2023-04-25T03:00:17;0.50;;;0.50;;
28086;SDS011;15392;48.912;8.380;2023-04-25T03:02:42;0.60;;;0.60;;
28086;SDS011;15392;48.912;8.380;2023-04-25T03:05:08;0.50;;;0.50;;
28086;SDS011;15392;48.912;8.380;2023-04-25T03:07:34;0.47;;;0.47;;
28086;SDS011;15392;48.912;8.380;2023-04-25T03:10:00;0.40;;;0.40;;
28086;SDS011;15392;48.912;8.380;2023-04-25T03:12:26;0.50;;;0.50;;
28086;SDS011;15392;48.912;8.380;2023-04-25T03:14:53;0.45;;;0.45;;
28086;SDS011;15392;48.912;8.380;2023-04-25T03:17:18;0.50;;;0.50;;
28086;SDS011;15392;48.912;8.380;2023-04-25T03:19:44;0.70;;;0.70;;
28086;SDS011;15392;48.912;8.380;2023-04-25T03:22:10;0.40;;;0.40;;
28086;SDS011;15392;48.912;8.380;2023-04-25T03:24:36;0.63;;;0.63;;
28086;SDS011;15392;48.912;8.380;2023-04-25T03:27:02;0.55;;;0.55;;
28086;SDS011;15392;48.912;8.380;2023-04-25T03:29:28;0.50;;;0.50;;
28086;SDS011;15392;48.912;8.380;2023-04-25T03:31:54;0.50;;;0.50;;
28086;SDS011;15392;48.912;8.380;2023-04-25T03:34:20;0.52;;;0.52;;
28086;SDS011;15392;48.912;8.380;2023-04-25T03:36:46;0.40;;;0.40;;
28086;SDS011;15392;48.912;8.380;2023-04-25T03:39:12;0.50;;;0.50;;
28086;SDS011;15392;48.912;8.380;2023-04-25T03:41:38;0.32;;;0.32;;
28086;SDS011;15392;48.912;8.380;2023-04-25T03:44:04;0.40;;;0.40;;
28086;SDS011;15392;48.912;8.380;2023-04-25T03:46:33;0.40;;;0.40;;
28086;SDS011;15392;48.912;8.380;2023-04-25T03:48:59;0.40;;;0.40;;
28086;SDS011;15392;48.912;8.380;2023-04-25T03:51:25;0.50;;;0.50;;
28086;SDS011;15392;48.912;8.380;2023-04-25T03:53:51;0.40;;;0.40;;
28086;SDS011;15392;48.912;8.380;2023-04-25T03:56:17;0.40;;;0.40;;
28086;SDS011;15392;48.912;8.380;2023-04-25T03:58:43;0.38;;;0.38;;
28086;SDS011;15392;48.912;8.380;2023-04-25T04:01:09;0.43;;;0.43;;
28086;SDS011;15392;48.912;8.380;2023-04-25T04:03:36;0.35;;;0.35;;
28086;SDS011;15392;48.912;8.380;2023-04-25T04:06:02;0.60;;;0.60;;
28086;SDS011;15392;48.912;8.380;2023-04-25T04:08:30;0.40;;;0.40;;
28086;SDS011;15392;48.912;8.380;2023-04-25T04:10:57;0.40;;;0.40;;
28086;SDS011;15392;48.912;8.380;2023-04-25T04:13:25;0.50;;;0.50;;
28086;SDS011;15392;48.912;8.380;2023-04-25T04:15:52;0.32;;;0.32;;
28086;SDS011;15392;48.912;8.380;2023-04-25T04:18:18;0.30;;;0.30;;
28086;SDS011;15392;48.912;8.380;2023-04-25T04:20:43;0.40;;;0.40;;
28086;SDS011;15392;48.912;8.380;2023-04-25T04:23:09;0.40;;;0.40;;
28086;SDS011;15392;48.912;8.380;2023-04-25T04:25:36;0.40;;;0.40;;
28086;SDS011;15392;48.912;8.380;2023-04-25T04:28:02;0.30;;;0.30;;
28086;SDS011;15392;48.912;8.380;2023-04-25T04:30:28;0.75;;;0.50;;
28086;SDS011;15392;48.912;8.380;2023-04-25T04:32:56;0.43;;;0.43;;
28086;SDS011;15392;48.912;8.380;2023-04-25T04:35:22;0.32;;;0.32;;
28086;SDS011;15392;48.912;8.380;2023-04-25T04:37:49;0.40;;;0.40;;
28086;SDS011;15392;48.912;8.380;2023-04-25T04:40:15;0.47;;;0.47;;
28086;SDS011;15392;48.912;8.380;2023-04-25T04:42:43;0.32;;;0.32;;
28086;SDS011;15392;48.912;8.380;2023-04-25T04:45:10;0.32;;;0.32;;
28086;SDS011;15392;48.912;8.380;2023-04-25T04:47:38;0.40;;;0.40;;
28086;SDS011;15392;48.912;8.380;2023-04-25T04:50:08;0.52;;;0.52;;
28086;SDS011;15392;48.912;8.380;2023-04-25T04:52:38;0.50;;;0.50;;
28086;SDS011;15392;48.912;8.380;2023-04-25T04:55:04;0.40;;;0.40;;
28086;SDS011;15392;48.912;8.380;2023-04-25T04:57:31;0.45;;;0.45;;
28086;SDS011;15392;48.912;8.380;2023-04-25T04:59:58;0.35;;;0.35;;
28086;SDS011;15392;48.912;8.380;2023-04-25T05:02:24;0.32;;;0.32;;
28086;SDS011;15392;48.912;8.380;2023-04-25T05:04:51;0.40;;;0.40;;
28086;SDS011;15392;48.912;8.380;2023-04-25T05:07:18;0.40;;;0.40;;
28086;SDS011;15392;48.912;8.380;2023-04-25T05:09:44;0.45;;;0.45;;
28086;SDS011;15392;48.912;8.380;2023-04-25T05:12:10;0.30;;;0.30;;
28086;SDS011;15392;48.912;8.380;2023-04-25T05:14:35;0.30;;;0.30;;
28086;SDS011;15392;48.912;8.380;2023-04-25T05:17:01;0.35;;;0.35;;
28086;SDS011;15392;48.912;8.380;2023-04-25T05:19:30;0.40;;;0.40;;
28086;SDS011;15392;48.912;8.380;2023-04-25T05:21:57;0.30;;;0.30;;
28086;SDS011;15392;48.912;8.380;2023-04-25T05:24:23;0.30;;;0.30;;
28086;SDS011;15392;48.912;8.380;2023-04-25T05:26:49;0.38;;;0.38;;
28086;SDS011;15392;48.912;8.380;2023-04-25T05:29:15;0.38;;;0.38;;
28086;SDS011;15392;48.912;8.380;2023-04-25T05:31:41;0.50;;;0.50;;
28086;SDS011;15392;48.912;8.380;2023-04-25T05:34:06;0.32;;;0.32;;
28086;SDS011;15392;48.912;8.380;2023-04-25T05:36:32;0.50;;;0.50;;
28086;SDS011;15392;48.912;8.380;2023-04-25T05:38:58;0.70;;;0.70;;
28086;SDS011;15392;48.912;8.380;2023-04-25T05:41:24;0.63;;;0.63;;
28086;SDS011;15392;48.912;8.380;2023-04-25T05:43:50;3.50;;;3.30;;
28086;SDS011;15392;48.912;8.380;2023-04-25T05:46:16;2.25;;;2.17;;
28086;SDS011;15392;48.912;8.380;2023-04-25T05:48:44;2.00;;;1.90;;
28086;SDS011;15392;48.912;8.380;2023-04-25T05:51:10;2.30;;;2.20;;
28086;SDS011;15392;48.912;8.380;2023-04-25T05:53:36;2.20;;;2.10;;
28086;SDS011;15392;48.912;8.380;2023-04-25T05:56:02;1.70;;;1.70;;
28086;SDS011;15392;48.912;8.380;2023-04-25T05:58:28;1.60;;;1.60;;
28086;SDS011;15392;48.912;8.380;2023-04-25T06:00:54;1.40;;;1.40;;
28086;SDS011;15392;48.912;8.380;2023-04-25T06:03:20;1.70;;;1.63;;
28086;SDS011;15392;48.912;8.380;2023-04-25T06:05:46;1.60;;;1.60;;
28086;SDS011;15392;48.912;8.380;2023-04-25T06:08:12;1.40;;;1.40;;
28086;SDS011;15392;48.912;8.380;2023-04-25T06:10:37;1.60;;;1.60;;
28086;SDS011;15392;48.912;8.380;2023-04-25T06:13:04;1.17;;;1.15;;
28086;SDS011;15392;48.912;8.380;2023-04-25T06:15:30;0.85;;;0.85;;
28086;SDS011;15392;48.912;8.380;2023-04-25T06:17:57;1.10;;;1.10;;
28086;SDS011;15392;48.912;8.380;2023-04-25T06:20:23;1.30;;;1.30;;
28086;SDS011;15392;48.912;8.380;2023-04-25T06:22:50;1.17;;;1.17;;
28086;SDS011;15392;48.912;8.380;2023-04-25T06:25:17;0.90;;;0.90;;
28086;SDS011;15392;48.912;8.380;2023-04-25T06:27:42;0.77;;;0.77;;
28086;SDS011;15392;48.912;8.380;2023-04-25T06:30:08;0.60;;;0.60;;
28086;SDS011;15392;48.912;8.380;2023-04-25T06:32:36;0.57;;;0.57;;
28086;SDS011;15392;48.912;8.380;2023-04-25T06:35:02;0.50;;;0.50;;
28086;SDS011;15392;48.912;8.380;2023-04-25T06:37:31;0.60;;;0.60;;
28086;SDS011;15392;48.912;8.380;2023-04-25T06:39:57;0.70;;;0.70;;
28086;SDS011;15392;48.912;8.380;2023-04-25T06:42:23;0.68;;;0.68;;
28086;SDS011;15392;48.912;8.380;2023-04-25T06:44:49;0.70;;;0.70;;
28086;SDS011;15392;48.912;8.380;2023-04-25T06:47:15;0.63;;;0.63;;
28086;SDS011;15392;48.912;8.380;2023-04-25T06:49:41;0.45;;;0.45;;
28086;SDS011;15392;48.912;8.380;2023-04-25T06:52:07;0.45;;;0.45;;
28086;SDS011;15392;48.912;8.380;2023-04-25T06:54:33;5.55;;;5.20;;
28086;SDS011;15392;48.912;8.380;2023-04-25T06:56:59;3.83;;;3.63;;
28086;SDS011;15392;48.912;8.380;2023-04-25T06:59:26;3.72;;;3.53;;
28086;SDS011;15392;48.912;8.380;2023-04-25T07:01:52;3.28;;;3.17;;
28086;SDS011;15392;48.912;8.380;2023-04-25T07:04:17;2.00;;;1.90;;
28086;SDS011;15392;48.912;8.380;2023-04-25T07:06:43;2.35;;;2.25;;
28086;SDS011;15392;48.912;8.380;2023-04-25T07:09:09;1.30;;;1.30;;
28086;SDS011;15392;48.912;8.380;2023-04-25T07:11:38;1.05;;;1.05;;
28086;SDS011;15392;48.912;8.380;2023-04-25T07:14:03;0.80;;;0.80;;
28086;SDS011;15392;48.912;8.380;2023-04-25T07:16:29;0.70;;;0.70;;
28086;SDS011;15392;48.912;8.380;2023-04-25T07:18:55;0.68;;;0.68;;
28086;SDS011;15392;48.912;8.380;2023-04-25T07:21:21;0.57;;;0.57;;
28086;SDS011;15392;48.912;8.380;2023-04-25T07:23:47;0.60;;;0.60;;
28086;SDS011;15392;48.912;8.380;2023-04-25T07:26:12;0.57;;;0.57;;
28086;SDS011;15392;48.912;8.380;2023-04-25T07:28:38;0.50;;;0.50;;
28086;SDS011;15392;48.912;8.380;2023-04-25T07:31:04;0.57;;;0.57;;
28086;SDS011;15392;48.912;8.380;2023-04-25T07:33:30;1.27;;;0.60;;
28086;SDS011;15392;48.912;8.380;2023-04-25T07:35:56;0.75;;;0.75;;
28086;SDS011;15392;48.912;8.380;2023-04-25T07:38:22;0.75;;;0.75;;
28086;SDS011;15392;48.912;8.380;2023-04-25T07:40:48;0.60;;;0.60;;
28086;SDS011;15392;48.912;8.380;2023-04-25T07:43:14;0.60;;;0.60;;
28086;SDS011;15392;48.912;8.380;2023-04-25T07:45:45;0.60;;;0.60;;
28086;SDS011;15392;48.912;8.380;2023-04-25T07:48:16;0.60;;;0.60;;
28086;SDS011;15392;48.912;8.380;2023-04-25T07:50:43;0.70;;;0.70;;
28086;SDS011;15392;48.912;8.380;2023-04-25T07:53:10;0.50;;;0.50;;
28086;SDS011;15392;48.912;8.380;2023-04-25T07:55:36;0.70;;;0.70;;
28086;SDS011;15392;48.912;8.380;2023-04-25T07:58:05;0.75;;;0.75;;
28086;SDS011;15392;48.912;8.380;2023-04-25T08:00:32;0.60;;;0.60;;
28086;SDS011;15392;48.912;8.380;2023-04-25T08:02:58;0.50;;;0.50;;
28086;SDS011;15392;48.912;8.380;2023-04-25T08:05:23;0.68;;;0.68;;
28086;SDS011;15392;48.912;8.380;2023-04-25T08:07:49;0.60;;;0.60;;
28086;SDS011;15392;48.912;8.380;2023-04-25T08:10:15;0.70;;;0.70;;
28086;SDS011;15392;48.912;8.380;2023-04-25T08:12:41;0.80;;;0.80;;
28086;SDS011;15392;48.912;8.380;2023-04-25T08:15:07;0.80;;;0.80;;
28086;SDS011;15392;48.912;8.380;2023-04-25T08:17:34;0.60;;;0.60;;
28086;SDS011;15392;48.912;8.380;2023-04-25T08:20:00;0.88;;;0.88;;
28086;SDS011;15392;48.912;8.380;2023-04-25T08:22:28;1.13;;;1.13;;
28086;SDS011;15392;48.912;8.380;2023-04-25T08:24:55;1.90;;;1.80;;
28086;SDS011;15392;48.912;8.380;2023-04-25T08:27:21;1.50;;;1.50;;
28086;SDS011;15392;48.912;8.380;2023-04-25T08:29:47;0.90;;;0.90;;
28086;SDS011;15392;48.912;8.380;2023-04-25T08:32:12;1.08;;;1.08;;
28086;SDS011;15392;48.912;8.380;2023-04-25T08:34:39;0.90;;;0.90;;
28086;SDS011;15392;48.912;8.380;2023-04-25T08:37:07;0.80;;;0.80;;
28086;SDS011;15392;48.912;8.380;2023-04-25T08:39:35;1.00;;;1.00;;
28086;SDS011;15392;48.912;8.380;2023-04-25T08:42:06;0.90;;;0.90;;
28086;SDS011;15392;48.912;8.380;2023-04-25T08:44:35;0.80;;;0.80;;
28086;SDS011;15392;48.912;8.380;2023-04-25T08:47:05;1.20;;;1.20;;
28086;SDS011;15392;48.912;8.380;2023-04-25T08:49:32;1.60;;;1.27;;
28086;SDS011;15392;48.912;8.380;2023-04-25T08:52:00;0.90;;;0.90;;
28086;SDS011;15392;48.912;8.380;2023-04-25T08:54:30;0.80;;;0.80;;
28086;SDS011;15392;48.912;8.380;2023-04-25T08:56:57;0.80;;;0.80;;
28086;SDS011;15392;48.912;8.380;2023-04-25T08:59:28;0.77;;;0.77;;
28086;SDS011;15392;48.912;8.380;2023-04-25T09:01:55;2.72;;;2.63;;
28086;SDS011;15392;48.912;8.380;2023-04-25T09:04:20;2.33;;;2.22;;
28086;SDS011;15392;48.912;8.380;2023-04-25T09:06:47;3.50;;;3.38;;
28086;SDS011;15392;48.912;8.380;2023-04-25T09:09:15;3.47;;;3.28;;
28086;SDS011;15392;48.912;8.380;2023-04-25T09:11:41;2.20;;;2.10;;
28086;SDS011;15392;48.912;8.380;2023-04-25T09:19:25;0.82;;;0.82;;
28086;SDS011;15392;48.912;8.380;2023-04-25T09:21:59;0.88;;;0.88;;
28086;SDS011;15392;48.912;8.380;2023-04-25T09:27:06;0.70;;;0.70;;
28086;SDS011;15392;48.912;8.380;2023-04-25T09:29:36;0.70;;;0.70;;
28086;SDS011;15392;48.912;8.380;2023-04-25T09:32:16;0.68;;;0.68;;
28086;SDS011;15392;48.912;8.380;2023-04-25T09:34:48;0.50;;;0.50;;
28086;SDS011;15392;48.912;8.380;2023-04-25T09:39:49;0.63;;;0.63;;
28086;SDS011;15392;48.912;8.380;2023-04-25T09:42:23;0.60;;;0.60;;
28086;SDS011;15392;48.912;8.380;2023-04-25T09:44:52;0.40;;;0.40;;
28086;SDS011;15392;48.912;8.380;2023-04-25T09:47:20;0.30;;;0.30;;
28086;SDS011;15392;48.912;8.380;2023-04-25T09:49:52;0.22;;;0.22;;
28086;SDS011;15392;48.912;8.380;2023-04-25T09:52:22;0.47;;;0.40;;
28086;SDS011;15392;48.912;8.380;2023-04-25T09:54:50;0.73;;;0.20;;
28086;SDS011;15392;48.912;8.380;2023-04-25T09:57:17;0.20;;;0.20;;
28086;SDS011;15392;48.912;8.380;2023-04-25T09:59:53;0.30;;;0.30;;
28086;SDS011;15392;48.912;8.380;2023-04-25T10:02:21;0.30;;;0.30;;
28086;SDS011;15392;48.912;8.380;2023-04-25T10:04:52;0.20;;;0.20;;
28086;SDS011;15392;48.912;8.380;2023-04-25T10:07:25;0.30;;;0.30;;
28086;SDS011;15392;48.912;8.380;2023-04-25T10:09:59;0.55;;;0.55;;
28086;SDS011;15392;48.912;8.380;2023-04-25T10:12:29;0.40;;;0.40;;
28086;SDS011;15392;48.912;8.380;2023-04-25T10:14:56;0.40;;;0.40;;
28086;SDS011;15392;48.912;8.380;2023-04-25T10:17:23;0.50;;;0.50;;
28086;SDS011;15392;48.912;8.380;2023-04-25T10:19:53;0.60;;;0.60;;
28086;SDS011;15392;48.912;8.380;2023-04-25T10:22:25;0.50;;;0.50;;
28086;SDS011;15392;48.912;8.380;2023-04-25T10:25:07;0.40;;;0.40;;
28086;SDS011;15392;48.912;8.380;2023-04-25T10:27:34;0.30;;;0.30;;
28086;SDS011;15392;48.912;8.380;2023-04-25T10:30:04;0.68;;;0.68;;
28086;SDS011;15392;48.912;8.380;2023-04-25T10:32:43;0.60;;;0.60;;
28086;SDS011;15392;48.912;8.380;2023-04-25T10:35:16;0.40;;;0.40;;
28086;SDS011;15392;48.912;8.380;2023-04-25T10:40:33;0.40;;;0.40;;
28086;SDS011;15392;48.912;8.380;2023-04-25T10:45:57;0.30;;;0.30;;
28086;SDS011;15392;48.912;8.380;2023-04-25T10:48:29;0.40;;;0.40;;
28086;SDS011;15392;48.912;8.380;2023-04-25T10:51:17;0.40;;;0.40;;
28086;SDS011;15392;48.912;8.380;2023-04-25T10:53:57;0.40;;;0.40;;
28086;SDS011;15392;48.912;8.380;2023-04-25T10:56:29;0.30;;;0.30;;
28086;SDS011;15392;48.912;8.380;2023-04-25T11:09:35;0.30;;;0.30;;
28086;SDS011;15392;48.912;8.380;2023-04-25T11:12:06;0.20;;;0.20;;
28086;SDS011;15392;48.912;8.380;2023-04-25T11:14:34;0.20;;;0.20;;
28086;SDS011;15392;48.912;8.380;2023-04-25T11:17:00;0.20;;;0.20;;
28086;SDS011;15392;48.912;8.380;2023-04-25T11:19:27;1.20;;;0.30;;
28086;SDS011;15392;48.912;8.380;2023-04-25T11:22:00;0.20;;;0.20;;
28086;SDS011;15392;48.912;8.380;2023-04-25T11:24:32;0.20;;;0.20;;
28086;SDS011;15392;48.912;8.380;2023-04-25T11:26:59;0.15;;;0.15;;
28086;SDS011;15392;48.912;8.380;2023-04-25T11:29:30;0.30;;;0.30;;
28086;SDS011;15392;48.912;8.380;2023-04-25T11:31:57;0.20;;;0.20;;
28086;SDS011;15392;48.912;8.380;2023-04-25T11:34:25;0.20;;;0.20;;
28086;SDS011;15392;48.912;8.380;2023-04-25T11:36:53;0.20;;;0.20;;
28086;SDS011;15392;48.912;8.380;2023-04-25T11:39:19;0.20;;;0.20;;
28086;SDS011;15392;48.912;8.380;2023-04-25T11:41:46;0.30;;;0.30;;
28086;SDS011;15392;48.912;8.380;2023-04-25T11:44:14;0.20;;;0.20;;
28086;SDS011;15392;48.912;8.380;2023-04-25T11:46:42;0.20;;;0.20;;
28086;SDS011;15392;48.912;8.380;2023-04-25T11:49:12;0.20;;;0.20;;
28086;SDS011;15392;48.912;8.380;2023-04-25T11:51:43;0.30;;;0.30;;
28086;SDS011;15392;48.912;8.380;2023-04-25T11:54:11;0.50;;;0.50;;
28086;SDS011;15392;48.912;8.380;2023-04-25T11:56:42;0.47;;;0.47;;
28086;SDS011;15392;48.912;8.380;2023-04-25T11:59:09;0.50;;;0.50;;
28086;SDS011;15392;48.912;8.380;2023-04-25T12:01:36;0.70;;;0.70;;
28086;SDS011;15392;48.912;8.380;2023-04-25T12:06:48;1.23;;;1.23;;
28086;SDS011;15392;48.912;8.380;2023-04-25T12:12:43;0.52;;;0.52;;
28086;SDS011;15392;48.912;8.380;2023-04-25T12:15:18;0.55;;;0.55;;
28086;SDS011;15392;48.912;8.380;2023-04-25T12:17:53;0.68;;;0.68;;
28086;SDS011;15392;48.912;8.380;2023-04-25T12:20:24;0.65;;;0.65;;
28086;SDS011;15392;48.912;8.380;2023-04-25T12:22:52;0.50;;;0.50;;
28086;SDS011;15392;48.912;8.380;2023-04-25T12:28:16;0.65;;;0.65;;
28086;SDS011;15392;48.912;8.380;2023-04-25T12:33:23;0.60;;;0.60;;
28086;SDS011;15392;48.912;8.380;2023-04-25T12:35:51;0.65;;;0.65;;
28086;SDS011;15392;48.912;8.380;2023-04-25T12:40:51;0.57;;;0.57;;
28086;SDS011;15392;48.912;8.380;2023-04-25T12:43:17;0.57;;;0.57;;
28086;SDS011;15392;48.912;8.380;2023-04-25T12:45:53;0.73;;;0.73;;
28086;SDS011;15392;48.912;8.380;2023-04-25T12:48:20;0.55;;;0.55;;
28086;SDS011;15392;48.912;8.380;2023-04-25T12:50:48;0.60;;;0.60;;
28086;SDS011;15392;48.912;8.380;2023-04-25T12:53:16;0.65;;;0.65;;
28086;SDS011;15392;48.912;8.380;2023-04-25T12:55:47;0.80;;;0.80;;
28086;SDS011;15392;48.912;8.380;2023-04-25T12:58:13;0.70;;;0.70;;
28086;SDS011;15392;48.912;8.380;2023-04-25T13:00:40;0.68;;;0.68;;
28086;SDS011;15392;48.912;8.380;2023-04-25T13:03:07;0.80;;;0.80;;
28086;SDS011;15392;48.912;8.380;2023-04-25T13:05:38;0.55;;;0.55;;
28086;SDS011;15392;48.912;8.380;2023-04-25T13:08:04;0.60;;;0.60;;
28086;SDS011;15392;48.912;8.380;2023-04-25T13:10:30;0.70;;;0.70;;
28086;SDS011;15392;48.912;8.380;2023-04-25T13:12:56;0.80;;;0.80;;
28086;SDS011;15392;48.912;8.380;2023-04-25T13:15:22;0.60;;;0.60;;
28086;SDS011;15392;48.912;8.380;2023-04-25T13:17:48;0.50;;;0.50;;
28086;SDS011;15392;48.912;8.380;2023-04-25T13:20:14;0.45;;;0.45;;
28086;SDS011;15392;48.912;8.380;2023-04-25T13:22:41;0.43;;;0.43;;
28086;SDS011;15392;48.912;8.380;2023-04-25T13:25:08;0.40;;;0.40;;
28086;SDS011;15392;48.912;8.380;2023-04-25T13:27:35;0.32;;;0.32;;
28086;SDS011;15392;48.912;8.380;2023-04-25T13:30:03;0.30;;;0.30;;
28086;SDS011;15392;48.912;8.380;2023-04-25T13:32:33;0.50;;;0.50;;
28086;SDS011;15392;48.912;8.380;2023-04-25T13:35:01;0.40;;;0.40;;
28086;SDS011;15392;48.912;8.380;2023-04-25T13:37:36;0.45;;;0.45;;
28086;SDS011;15392;48.912;8.380;2023-04-25T13:40:03;0.40;;;0.40;;
28086;SDS011;15392;48.912;8.380;2023-04-25T13:42:34;0.22;;;0.22;;
28086;SDS011;15392;48.912;8.380;2023-04-25T13:45:02;0.40;;;0.40;;
28086;SDS011;15392;48.912;8.380;2023-04-25T13:47:28;0.47;;;0.40;;
28086;SDS011;15392;48.912;8.380;2023-04-25T13:49:55;0.30;;;0.30;;
28086;SDS011;15392;48.912;8.380;2023-04-25T13:52:25;0.28;;;0.28;;
28086;SDS011;15392;48.912;8.380;2023-04-25T13:55:02;0.20;;;0.20;;
28086;SDS011;15392;48.912;8.380;2023-04-25T13:57:32;0.75;;;0.20;;
28086;SDS011;15392;48.912;8.380;2023-04-25T14:00:02;0.20;;;0.20;;
28086;SDS011;15392;48.912;8.380;2023-04-25T14:02:36;0.20;;;0.20;;
28086;SDS011;15392;48.912;8.380;2023-04-25T14:05:03;0.20;;;0.20;;
28086;SDS011;15392;48.912;8.380;2023-04-25T14:07:33;0.30;;;0.30;;
28086;SDS011;15392;48.912;8.380;2023-04-25T14:10:02;0.20;;;0.20;;
28086;SDS011;15392;48.912;8.380;2023-04-25T14:12:32;0.20;;;0.20;;
28086;SDS011;15392;48.912;8.380;2023-04-25T14:15:01;0.30;;;0.30;;
28086;SDS011;15392;48.912;8.380;2023-04-25T14:17:37;0.63;;;0.25;;
28086;SDS011;15392;48.912;8.380;2023-04-25T14:20:04;0.22;;;0.22;;
28086;SDS011;15392;48.912;8.380;2023-04-25T14:22:34;0.30;;;0.30;;
28086;SDS011;15392;48.912;8.380;2023-04-25T14:25:08;0.50;;;0.50;;
28086;SDS011;15392;48.912;8.380;2023-04-25T14:27:35;0.40;;;0.40;;
28086;SDS011;15392;48.912;8.380;2023-04-25T14:30:01;0.32;;;0.32;;
28086;SDS011;15392;48.912;8.380;2023-04-25T14:32:28;0.30;;;0.30;;
28086;SDS011;15392;48.912;8.380;2023-04-25T14:34:57;0.40;;;0.40;;
28086;SDS011;15392;48.912;8.380;2023-04-25T14:37:26;0.52;;;0.52;;
28086;SDS011;15392;48.912;8.380;2023-04-25T14:39:52;0.38;;;0.38;;
28086;SDS011;15392;48.912;8.380;2023-04-25T14:42:18;0.38;;;0.38;;
28086;SDS011;15392;48.912;8.380;2023-04-25T14:44:44;0.30;;;0.30;;
28086;SDS011;15392;48.912;8.380;2023-04-25T14:47:10;0.30;;;0.30;;
28086;SDS011;15392;48.912;8.380;2023-04-25T14:49:36;0.30;;;0.30;;
28086;SDS011;15392;48.912;8.380;2023-04-25T14:52:02;0.43;;;0.43;;
28086;SDS011;15392;48.912;8.380;2023-04-25T14:54:28;0.30;;;0.30;;
28086;SDS011;15392;48.912;8.380;2023-04-25T14:56:54;0.40;;;0.40;;
28086;SDS011;15392;48.912;8.380;2023-04-25T14:59:20;0.40;;;0.40;;
28086;SDS011;15392;48.912;8.380;2023-04-25T15:01:46;0.40;;;0.40;;
28086;SDS011;15392;48.912;8.380;2023-04-25T15:04:12;0.40;;;0.40;;
28086;SDS011;15392;48.912;8.380;2023-04-25T15:06:39;0.30;;;0.30;;
28086;SDS011;15392;48.912;8.380;2023-04-25T15:09:07;0.60;;;0.60;;
28086;SDS011;15392;48.912;8.380;2023-04-25T15:11:36;0.60;;;0.60;;
28086;SDS011;15392;48.912;8.380;2023-04-25T15:14:05;0.90;;;0.90;;
28086;SDS011;15392;48.912;8.380;2023-04-25T15:16:34;0.75;;;0.75;;
28086;SDS011;15392;48.912;8.380;2023-04-25T15:19:00;1.00;;;1.00;;
28086;SDS011;15392;48.912;8.380;2023-04-25T15:21:29;0.80;;;0.80;;
28086;SDS011;15392;48.912;8.380;2023-04-25T15:23:56;0.60;;;0.60;;
28086;SDS011;15392;48.912;8.380;2023-04-25T15:26:22;0.77;;;0.77;;
28086;SDS011;15392;48.912;8.380;2023-04-25T15:28:48;0.50;;;0.50;;
28086;SDS011;15392;48.912;8.380;2023-04-25T15:31:14;0.30;;;0.30;;
28086;SDS011;15392;48.912;8.380;2023-04-25T15:33:40;0.40;;;0.40;;
28086;SDS011;15392;48.912;8.380;2023-04-25T15:36:06;0.40;;;0.40;;
28086;SDS011;15392;48.912;8.380;2023-04-25T15:38:32;0.30;;;0.30;;
28086;SDS011;15392;48.912;8.380;2023-04-25T15:40:58;0.30;;;0.30;;
28086;SDS011;15392;48.912;8.380;2023-04-25T15:43:24;0.45;;;0.40;;
28086;SDS011;15392;48.912;8.380;2023-04-25T15:45:50;0.60;;;0.60;;
28086;SDS011;15392;48.912;8.380;2023-04-25T15:48:16;0.50;;;0.50;;
28086;SDS011;15392;48.912;8.380;2023-04-25T15:50:42;0.38;;;0.38;;
28086;SDS011;15392;48.912;8.380;2023-04-25T15:53:08;0.50;;;0.50;;
28086;SDS011;15392;48.912;8.380;2023-04-25T15:55:34;0.30;;;0.30;;
28086;SDS011;15392;48.912;8.380;2023-04-25T15:58:01;0.30;;;0.30;;